Terminal Aerodrome Forecast
Issued by NWS Sterling, VA

Current Version | Previous Version | Graphics & Text | Print | Product List | Glossary On
Versions: 1 2 3 4 5 6 7 8 9 10 11 12 13 14 15 16 17 18 19 20 21 22 23 24 25 26 27 28 29
000
FTUS41 KLWX 020529
TAFIAD
TAF
KIAD 020529Z 0206/0312 VRB03KT P6SM SCT200
     FM021200 01004KT P6SM BKN080
     FM022300 10004KT P6SM SCT050 BKN100
     FM031000 04004KT 5SM BR SCT015 BKN070=

USA.gov is the U.S. government's official web portal to all federal, state and local government web resources and services.